Time;durP1;ratioP1;P1;durP2;ratioP2;P2;SDS_P1;SDS_P2;PMS_P1;PMS_P2;Temp;Humidity;BMP_temperature;BMP_pressure;BME280_temperature;BME280_humidity;BME280_pressure;Samples;Min_cycle;Max_cycle;Signal;HPM_P1;HPM_P2
2023/10/22 00:01:45;;;;;;;11.95;3.72;;;;;;;;;;5080749;28;20055;-73
2023/10/22 00:04:29;;;;;;;7.90;3.25;;;;;;;;;;5081328;28;20048;-75
2023/10/22 00:07:14;;;;;;;9.52;3.80;;;;;;;;;;5077955;28;20512;-73
2023/10/22 00:09:59;;;;;;;15.15;3.33;;;;;;;;;;5081600;28;20056;-74
2023/10/22 00:12:43;;;;;;;13.13;3.35;;;;;;;;;;5081934;28;20044;-73
2023/10/22 00:15:28;;;;;;;9.55;3.65;;;;;;;;;;5082378;28;20071;-75
2023/10/22 00:18:48;;;;;;;18.67;4.05;;;;;;;;;;5083497;28;20051;-75
2023/10/22 00:24:43;;;;;;;14.30;4.90;;;;;;;;;;5082641;28;20052;-75
2023/10/22 00:27:35;;;;;;;18.60;3.92;;;;;;;;;;5076946;28;20494;-73
2023/10/22 00:30:26;;;;;;;11.82;3.88;;;;;;;;;;5077228;28;20052;-75
2023/10/22 00:33:28;;;;;;;13.50;3.75;;;;;;;;;;5082464;28;20056;-74
2023/10/22 00:36:00;;;;;;;11.85;3.75;;;;;;;;;;5082476;28;20047;-75
2023/10/22 00:38:31;;;;;;;11.07;4.53;;;;;;;;;;5082701;28;20036;-75
2023/10/22 00:41:11;;;;;;;14.75;5.53;;;;;;;;;;5080363;28;20052;-76
2023/10/22 00:44:29;;;;;;;9.98;4.63;;;;;;;;;;5079440;28;20035;-74
2023/10/22 00:47:06;;;;;;;13.88;5.00;;;;;;;;;;5079162;28;20060;-75
2023/10/22 00:49:37;;;;;;;18.80;4.22;;;;;;;;;;5081718;28;20052;-80
2023/10/22 00:52:08;;;;;;;19.20;6.05;;;;;;;;;;5063913;28;20055;-74
2023/10/22 00:55:11;;;;;;;13.48;5.07;;;;;;;;;;5081497;28;20508;-76
2023/10/22 01:01:16;;;;;;;11.57;4.10;;;;;;;;;;5080666;28;20055;-75
2023/10/22 01:04:08;;;;;;;11.93;4.72;;;;;;;;;;5080332;28;20047;-76
2023/10/22 01:07:06;;;;;;;13.40;4.47;;;;;;;;;;5079717;28;20504;-75
2023/10/22 01:09:37;;;;;;;11.35;4.20;;;;;;;;;;5081776;28;20063;-74
2023/10/22 01:12:09;;;;;;;10.77;4.07;;;;;;;;;;5081825;28;20040;-76
2023/10/22 01:14:39;;;;;;;13.25;4.55;;;;;;;;;;5079100;28;20394;-74
2023/10/22 01:17:10;;;;;;;16.73;4.43;;;;;;;;;;5079031;28;20048;-76
2023/10/22 01:19:43;;;;;;;9.73;3.83;;;;;;;;;;5079116;28;20040;-74
2023/10/22 01:22:13;;;;;;;18.70;4.05;;;;;;;;;;5081864;28;20509;-75
2023/10/22 01:24:43;;;;;;;11.75;3.90;;;;;;;;;;5081205;28;20058;-75
2023/10/22 01:27:14;;;;;;;14.02;3.72;;;;;;;;;;5080838;28;20487;-73
2023/10/22 01:29:46;;;;;;;12.95;4.25;;;;;;;;;;5081163;28;20810;-74
2023/10/22 01:32:53;;;;;;;11.13;3.55;;;;;;;;;;5082348;28;20401;-75
2023/10/22 01:35:52;;;;;;;12.07;3.60;;;;;;;;;;5081656;28;20051;-72
2023/10/22 01:39:22;;;;;;;15.73;3.90;;;;;;;;;;5080560;28;20048;-73
2023/10/22 01:42:24;;;;;;;9.63;3.85;;;;;;;;;;5079099;28;20055;-74
2023/10/22 01:45:08;;;;;;;12.43;3.63;;;;;;;;;;5079667;28;20390;-74
2023/10/22 01:47:58;;;;;;;11.50;3.75;;;;;;;;;;5080905;28;20398;-75
2023/10/22 01:50:34;;;;;;;6.90;3.33;;;;;;;;;;5080723;28;20397;-75
2023/10/22 01:54:05;;;;;;;10.32;3.47;;;;;;;;;;5079564;28;20036;-74
2023/10/22 01:56:57;;;;;;;10.80;3.67;;;;;;;;;;5084693;28;20047;-75
2023/10/22 01:59:55;;;;;;;9.43;3.42;;;;;;;;;;5084147;28;20558;-76
2023/10/22 02:02:39;;;;;;;12.50;3.92;;;;;;;;;;5083793;28;20044;-74
2023/10/22 02:05:29;;;;;;;11.70;3.50;;;;;;;;;;5084263;28;20044;-75
2023/10/22 02:08:14;;;;;;;8.98;4.03;;;;;;;;;;5083746;28;20052;-77
2023/10/22 02:11:07;;;;;;;7.07;3.40;;;;;;;;;;5084785;28;20406;-75
2023/10/22 02:13:51;;;;;;;14.05;3.92;;;;;;;;;;5083277;28;20060;-75
2023/10/22 02:16:38;;;;;;;8.07;3.55;;;;;;;;;;5083633;28;20048;-76
2023/10/22 02:19:18;;;;;;;13.75;3.63;;;;;;;;;;5085621;28;20040;-74
2023/10/22 02:22:18;;;;;;;8.25;3.97;;;;;;;;;;5085765;28;20062;-74
2023/10/22 02:24:48;;;;;;;11.18;3.90;;;;;;;;;;5085415;28;20067;-76
2023/10/22 02:27:31;;;;;;;10.80;3.80;;;;;;;;;;5084154;28;20383;-75
2023/10/22 02:30:07;;;;;;;11.18;3.63;;;;;;;;;;5081873;28;20044;-74
2023/10/22 02:32:38;;;;;;;9.13;3.88;;;;;;;;;;5084883;28;20048;-74
2023/10/22 02:35:10;;;;;;;10.45;3.65;;;;;;;;;;5083213;28;20529;-74
2023/10/22 02:37:41;;;;;;;7.82;4.07;;;;;;;;;;5083271;28;20044;-75
2023/10/22 02:40:12;;;;;;;13.32;4.50;;;;;;;;;;5084832;28;20398;-76
2023/10/22 02:42:43;;;;;;;11.07;4.15;;;;;;;;;;5084755;28;20043;-73
2023/10/22 02:45:14;;;;;;;10.20;3.85;;;;;;;;;;5083091;28;20406;-75
2023/10/22 02:47:44;;;;;;;7.20;3.58;;;;;;;;;;5066720;28;20405;-75
2023/10/22 02:50:14;;;;;;;7.30;3.83;;;;;;;;;;5084185;28;20051;-73
2023/10/22 02:52:46;;;;;;;8.43;4.00;;;;;;;;;;5083130;28;20055;-75
2023/10/22 02:55:17;;;;;;;12.07;3.80;;;;;;;;;;5083426;28;20044;-74
2023/10/22 02:57:48;;;;;;;14.20;4.45;;;;;;;;;;5085361;28;20040;-75
2023/10/22 03:00:19;;;;;;;8.80;3.83;;;;;;;;;;5083091;28;20399;-72
2023/10/22 03:03:04;;;;;;;10.20;3.97;;;;;;;;;;5084579;28;20051;-74
2023/10/22 03:05:36;;;;;;;8.40;4.55;;;;;;;;;;5083959;28;20601;-73
2023/10/22 03:08:07;;;;;;;13.13;4.20;;;;;;;;;;5084151;28;20048;-73
2023/10/22 03:10:37;;;;;;;11.25;4.20;;;;;;;;;;5084541;28;20052;-74
2023/10/22 03:13:08;;;;;;;14.23;5.13;;;;;;;;;;5084518;28;20040;-75
2023/10/22 03:15:38;;;;;;;9.27;4.15;;;;;;;;;;5084275;28;20048;-75
2023/10/22 03:18:08;;;;;;;9.73;4.53;;;;;;;;;;5084137;28;20044;-74
2023/10/22 03:20:39;;;;;;;8.93;4.10;;;;;;;;;;5083837;28;20037;-75
2023/10/22 03:23:10;;;;;;;7.70;3.75;;;;;;;;;;5083888;28;20651;-74
2023/10/22 03:25:41;;;;;;;12.98;4.28;;;;;;;;;;5083914;28;20509;-72
2023/10/22 03:28:11;;;;;;;10.95;4.25;;;;;;;;;;5081931;28;20055;-73
2023/10/22 03:30:42;;;;;;;10.25;4.60;;;;;;;;;;5083647;28;20048;-74
2023/10/22 03:33:12;;;;;;;15.02;4.82;;;;;;;;;;5084416;28;20608;-73
2023/10/22 03:35:42;;;;;;;16.10;4.57;;;;;;;;;;5082505;28;20055;-73
2023/10/22 03:38:13;;;;;;;7.90;3.90;;;;;;;;;;5083493;28;20402;-74
2023/10/22 03:40:43;;;;;;;11.40;3.72;;;;;;;;;;5083571;28;20036;-74
2023/10/22 03:43:13;;;;;;;10.40;4.80;;;;;;;;;;5083588;28;20036;-74
2023/10/22 03:45:43;;;;;;;22.27;4.80;;;;;;;;;;5083551;28;20058;-74
2023/10/22 03:48:13;;;;;;;11.02;4.15;;;;;;;;;;5083528;28;20043;-75
2023/10/22 03:50:45;;;;;;;10.90;4.13;;;;;;;;;;5081591;28;20537;-78
2023/10/22 03:53:16;;;;;;;11.60;5.00;;;;;;;;;;5083265;28;20040;-74
2023/10/22 03:55:47;;;;;;;11.50;4.32;;;;;;;;;;5083924;28;20094;-74
2023/10/22 03:58:17;;;;;;;14.45;4.13;;;;;;;;;;5082999;28;20819;-73
2023/10/22 04:00:49;;;;;;;14.05;4.18;;;;;;;;;;5083682;28;20055;-75
2023/10/22 04:03:19;;;;;;;11.88;4.50;;;;;;;;;;5083417;28;20044;-74
2023/10/22 04:05:57;;;;;;;17.88;4.20;;;;;;;;;;5083579;28;20498;-74
2023/10/22 04:08:28;;;;;;;12.88;5.95;;;;;;;;;;5081993;28;20434;-74
2023/10/22 04:10:58;;;;;;;11.27;3.88;;;;;;;;;;5080318;28;20501;-75
2023/10/22 04:13:28;;;;;;;14.52;4.53;;;;;;;;;;5080235;28;20498;-75
2023/10/22 04:15:59;;;;;;;8.68;4.10;;;;;;;;;;5081199;28;20044;-73
2023/10/22 04:18:30;;;;;;;10.75;4.00;;;;;;;;;;5079915;28;20052;-73
2023/10/22 04:21:00;;;;;;;12.32;4.43;;;;;;;;;;5080214;28;20040;-75
2023/10/22 04:23:30;;;;;;;10.40;4.32;;;;;;;;;;5080680;28;20044;-73
2023/10/22 04:26:00;;;;;;;10.15;3.90;;;;;;;;;;5080329;28;20062;-73
2023/10/22 04:28:31;;;;;;;12.93;4.43;;;;;;;;;;5080266;28;20095;-75
2023/10/22 04:31:01;;;;;;;11.60;4.70;;;;;;;;;;5079888;28;20051;-74
2023/10/22 04:33:32;;;;;;;11.07;4.40;;;;;;;;;;5080244;28;20058;-76
2023/10/22 04:36:04;;;;;;;10.07;4.30;;;;;;;;;;5079722;28;20044;-75
2023/10/22 04:38:35;;;;;;;9.20;4.10;;;;;;;;;;5079809;28;20044;-74
2023/10/22 04:41:10;;;;;;;12.15;4.00;;;;;;;;;;5081457;28;20048;-75
2023/10/22 04:43:41;;;;;;;9.68;3.75;;;;;;;;;;5082632;28;20040;-73
2023/10/22 04:46:12;;;;;;;11.20;4.05;;;;;;;;;;5082266;28;20055;-75
2023/10/22 04:48:44;;;;;;;12.65;4.60;;;;;;;;;;5082114;28;20102;-76
2023/10/22 04:51:16;;;;;;;11.68;4.30;;;;;;;;;;5081135;28;20494;-76
2023/10/22 04:53:46;;;;;;;7.18;4.00;;;;;;;;;;5082226;28;20612;-74
2023/10/22 04:56:16;;;;;;;11.85;4.35;;;;;;;;;;5082433;28;20502;-74
2023/10/22 04:58:47;;;;;;;8.77;3.85;;;;;;;;;;5082414;28;20521;-74
2023/10/22 05:01:17;;;;;;;10.20;4.20;;;;;;;;;;5081157;28;20066;-75
2023/10/22 05:03:47;;;;;;;11.95;4.28;;;;;;;;;;5082383;28;21231;-76
2023/10/22 05:06:17;;;;;;;10.00;4.50;;;;;;;;;;5080395;28;20141;-73
2023/10/22 05:08:48;;;;;;;14.40;5.07;;;;;;;;;;5082179;28;20059;-74
2023/10/22 05:11:18;;;;;;;12.30;4.63;;;;;;;;;;5082298;28;20044;-74
2023/10/22 05:13:48;;;;;;;12.77;4.78;;;;;;;;;;5082145;28;20055;-76
2023/10/22 05:16:18;;;;;;;12.68;4.63;;;;;;;;;;5082242;28;20051;-75
2023/10/22 05:18:48;;;;;;;9.60;4.40;;;;;;;;;;5081922;28;20479;-76
2023/10/22 05:21:20;;;;;;;8.55;4.57;;;;;;;;;;5081862;28;20040;-73
2023/10/22 05:23:49;;;;;;;7.20;4.43;;;;;;;;;;5081959;28;20041;-73
2023/10/22 05:26:20;;;;;;;8.80;4.65;;;;;;;;;;5082436;28;20048;-75
2023/10/22 05:28:50;;;;;;;10.73;4.75;;;;;;;;;;5083116;28;20498;-74
2023/10/22 05:31:20;;;;;;;7.57;4.65;;;;;;;;;;5083429;28;20055;-73
2023/10/22 05:33:51;;;;;;;8.52;4.78;;;;;;;;;;5086200;28;20482;-74
2023/10/22 05:36:22;;;;;;;12.07;4.30;;;;;;;;;;5085907;28;20040;-75
2023/10/22 05:38:53;;;;;;;14.38;4.75;;;;;;;;;;5086581;28;20040;-74
2023/10/22 05:41:28;;;;;;;10.60;4.32;;;;;;;;;;5086898;28;20493;-73
2023/10/22 05:44:01;;;;;;;12.05;5.68;;;;;;;;;;5085846;28;20054;-72
2023/10/22 05:46:33;;;;;;;11.88;4.43;;;;;;;;;;5085868;28;20051;-72
2023/10/22 05:49:04;;;;;;;11.40;5.20;;;;;;;;;;5086578;28;20499;-73
2023/10/22 05:51:34;;;;;;;8.07;3.95;;;;;;;;;;5084860;28;20048;-73
2023/10/22 05:54:04;;;;;;;9.75;4.72;;;;;;;;;;5085498;28;20036;-74
2023/10/22 05:56:37;;;;;;;12.07;4.60;;;;;;;;;;5085953;28;20044;-73
2023/10/22 05:59:09;;;;;;;6.80;3.58;;;;;;;;;;5086006;28;20039;-75
2023/10/22 06:01:41;;;;;;;9.65;4.32;;;;;;;;;;5085339;28;20048;-73
2023/10/22 06:04:11;;;;;;;6.32;4.78;;;;;;;;;;5085884;28;20355;-74
2023/10/22 06:06:42;;;;;;;9.43;5.07;;;;;;;;;;5085660;28;20489;-75
2023/10/22 06:09:12;;;;;;;9.55;5.30;;;;;;;;;;5085529;28;20052;-73
2023/10/22 06:11:42;;;;;;;11.82;5.10;;;;;;;;;;5085837;28;20044;-75
2023/10/22 06:14:13;;;;;;;8.10;4.30;;;;;;;;;;5085625;28;20043;-74
2023/10/22 06:16:46;;;;;;;9.27;5.03;;;;;;;;;;5085539;28;20036;-72
2023/10/22 06:19:17;;;;;;;11.50;4.90;;;;;;;;;;5085127;28;20048;-74
2023/10/22 06:21:47;;;;;;;17.00;4.50;;;;;;;;;;5085477;28;20040;-73
2023/10/22 06:24:18;;;;;;;12.23;4.78;;;;;;;;;;5085132;28;20420;-74
2023/10/22 06:26:48;;;;;;;9.50;4.35;;;;;;;;;;5083964;28;20059;-75
2023/10/22 06:29:19;;;;;;;8.57;4.45;;;;;;;;;;5084845;28;20584;-75
2023/10/22 06:31:49;;;;;;;9.73;4.10;;;;;;;;;;5084325;28;20044;-75
2023/10/22 06:34:20;;;;;;;8.70;4.38;;;;;;;;;;5084467;28;20040;-72
2023/10/22 06:36:50;;;;;;;11.02;4.22;;;;;;;;;;5085489;28;20055;-74
2023/10/22 06:39:20;;;;;;;10.85;4.78;;;;;;;;;;5085350;28;20044;-73
2023/10/22 06:41:51;;;;;;;8.93;4.88;;;;;;;;;;5084391;28;20055;-74
2023/10/22 06:44:21;;;;;;;6.43;4.18;;;;;;;;;;5084461;28;20048;-74
2023/10/22 06:46:52;;;;;;;11.65;4.30;;;;;;;;;;5084564;28;20065;-72
2023/10/22 06:49:22;;;;;;;7.53;4.45;;;;;;;;;;5082997;28;20051;-73
2023/10/22 06:51:52;;;;;;;13.63;4.40;;;;;;;;;;5084862;28;20051;-73
2023/10/22 06:54:23;;;;;;;9.80;4.22;;;;;;;;;;5085147;28;20486;-74
2023/10/22 06:56:53;;;;;;;16.70;4.35;;;;;;;;;;5085142;28;20043;-72
2023/10/22 06:59:24;;;;;;;11.82;4.70;;;;;;;;;;5084104;28;20482;-74
2023/10/22 07:01:54;;;;;;;10.35;4.50;;;;;;;;;;5084194;28;20040;-75
2023/10/22 07:04:26;;;;;;;12.05;4.15;;;;;;;;;;5083867;28;20051;-73
2023/10/22 07:06:56;;;;;;;8.20;3.85;;;;;;;;;;5083340;28;20070;-72
2023/10/22 07:09:26;;;;;;;6.75;4.68;;;;;;;;;;5084497;28;20044;-72
2023/10/22 07:11:56;;;;;;;12.10;4.03;;;;;;;;;;5084487;28;20036;-72
2023/10/22 07:14:27;;;;;;;8.73;4.28;;;;;;;;;;5083812;28;20410;-74
2023/10/22 07:16:57;;;;;;;8.50;4.47;;;;;;;;;;5084244;28;20063;-73
2023/10/22 07:19:27;;;;;;;8.02;4.10;;;;;;;;;;5083675;28;20399;-74
2023/10/22 07:21:58;;;;;;;11.95;5.05;;;;;;;;;;5082474;28;20483;-77
2023/10/22 07:24:28;;;;;;;11.35;4.35;;;;;;;;;;5084206;28;20028;-74
2023/10/22 07:26:59;;;;;;;8.00;4.47;;;;;;;;;;5084881;28;20052;-75
2023/10/22 07:29:29;;;;;;;7.78;4.18;;;;;;;;;;5084747;28;20048;-72
2023/10/22 07:31:59;;;;;;;9.38;3.97;;;;;;;;;;5083806;28;20054;-73
2023/10/22 07:34:30;;;;;;;8.77;3.97;;;;;;;;;;5083940;28;20048;-73
2023/10/22 07:37:00;;;;;;;11.35;4.65;;;;;;;;;;5083655;28;20490;-74
2023/10/22 07:39:32;;;;;;;11.40;4.78;;;;;;;;;;5083288;28;20375;-74
2023/10/22 07:42:02;;;;;;;10.85;4.63;;;;;;;;;;5083695;28;20048;-75
2023/10/22 07:44:32;;;;;;;9.50;4.55;;;;;;;;;;5082020;28;20051;-73
2023/10/22 07:47:02;;;;;;;9.95;3.97;;;;;;;;;;5081670;28;20044;-72
2023/10/22 07:49:32;;;;;;;8.35;4.45;;;;;;;;;;5083055;28;20044;-74
2023/10/22 07:52:03;;;;;;;8.05;4.28;;;;;;;;;;5082879;28;20044;-73
2023/10/22 07:54:33;;;;;;;10.55;4.50;;;;;;;;;;5083006;28;20032;-73
2023/10/22 07:57:05;;;;;;;7.93;4.50;;;;;;;;;;5083849;28;20375;-72
2023/10/22 07:59:36;;;;;;;8.27;4.10;;;;;;;;;;5082129;28;20604;-74
2023/10/22 08:02:07;;;;;;;8.40;4.10;;;;;;;;;;5083432;28;20386;-73
2023/10/22 08:04:38;;;;;;;7.70;3.95;;;;;;;;;;5083594;28;20036;-73
2023/10/22 08:07:09;;;;;;;8.98;4.20;;;;;;;;;;5083302;28;20048;-75
2023/10/22 08:09:39;;;;;;;8.52;4.10;;;;;;;;;;5083233;28;20044;-73
2023/10/22 08:12:10;;;;;;;7.75;4.47;;;;;;;;;;5083211;28;20596;-74
2023/10/22 08:14:41;;;;;;;9.77;4.57;;;;;;;;;;5083151;28;20052;-74
2023/10/22 08:17:11;;;;;;;8.57;4.07;;;;;;;;;;5083373;28;20482;-72
2023/10/22 08:19:42;;;;;;;8.43;4.18;;;;;;;;;;5081064;28;20055;-73
2023/10/22 08:22:13;;;;;;;7.30;3.97;;;;;;;;;;5082904;28;20397;-73
2023/10/22 08:24:48;;;;;;;8.50;4.45;;;;;;;;;;5083078;28;20058;-76
2023/10/22 08:27:18;;;;;;;6.07;4.30;;;;;;;;;;5083221;28;20047;-74
2023/10/22 08:29:48;;;;;;;6.40;4.30;;;;;;;;;;5082640;28;20044;-74
2023/10/22 08:32:19;;;;;;;8.35;4.53;;;;;;;;;;5082385;28;20044;-73
2023/10/22 08:34:49;;;;;;;6.05;4.10;;;;;;;;;;5082714;28;20058;-73
2023/10/22 08:37:19;;;;;;;12.15;4.55;;;;;;;;;;5082737;28;20036;-72
2023/10/22 08:39:49;;;;;;;10.27;4.72;;;;;;;;;;5082564;28;20471;-75
2023/10/22 08:42:24;;;;;;;10.25;4.53;;;;;;;;;;5081164;28;20064;-75
2023/10/22 08:44:55;;;;;;;10.38;4.13;;;;;;;;;;5083105;28;20522;-72
2023/10/22 08:47:25;;;;;;;13.57;4.45;;;;;;;;;;5083227;28;20047;-74
2023/10/22 08:49:56;;;;;;;7.53;4.25;;;;;;;;;;5082886;28;20470;-73
2023/10/22 08:52:28;;;;;;;8.98;4.63;;;;;;;;;;5081616;28;20048;-74
2023/10/22 08:54:59;;;;;;;11.40;4.72;;;;;;;;;;5082397;28;20040;-75
2023/10/22 08:57:30;;;;;;;13.05;4.47;;;;;;;;;;5082201;28;20051;-74
2023/10/22 09:00:01;;;;;;;10.18;4.65;;;;;;;;;;5082750;28;20044;-73
2023/10/22 09:02:32;;;;;;;7.60;4.60;;;;;;;;;;5082196;28;20052;-73
2023/10/22 09:05:03;;;;;;;10.77;5.00;;;;;;;;;;5082580;28;20044;-75
2023/10/22 09:07:52;;;;;;;6.53;4.63;;;;;;;;;;5080814;28;20055;-75
2023/10/22 09:10:25;;;;;;;8.52;4.45;;;;;;;;;;5081961;28;20044;-74
2023/10/22 09:13:12;;;;;;;8.35;4.60;;;;;;;;;;5081825;28;20067;-72
2023/10/22 09:15:45;;;;;;;7.80;4.85;;;;;;;;;;5082537;28;20032;-74
2023/10/22 09:18:16;;;;;;;12.68;4.90;;;;;;;;;;5082592;28;20036;-74
2023/10/22 09:20:48;;;;;;;9.07;4.85;;;;;;;;;;5083315;28;20047;-72
2023/10/22 09:23:20;;;;;;;9.82;5.45;;;;;;;;;;5082332;28;20044;-75
2023/10/22 09:25:52;;;;;;;11.48;4.30;;;;;;;;;;5081736;28;20048;-74
2023/10/22 09:28:24;;;;;;;7.55;4.35;;;;;;;;;;5081636;28;20051;-75
2023/10/22 09:30:58;;;;;;;9.73;4.72;;;;;;;;;;5081929;28;20047;-73
2023/10/22 09:33:34;;;;;;;12.15;4.55;;;;;;;;;;5081992;28;20498;-73
2023/10/22 09:36:11;;;;;;;8.70;4.72;;;;;;;;;;5082180;28;20398;-74
2023/10/22 09:38:46;;;;;;;9.57;4.35;;;;;;;;;;5081831;28;20038;-73
2023/10/22 09:41:25;;;;;;;10.52;4.45;;;;;;;;;;5079578;28;20051;-74
2023/10/22 09:44:01;;;;;;;8.23;4.70;;;;;;;;;;5081872;28;20050;-72
2023/10/22 09:46:33;;;;;;;10.55;4.60;;;;;;;;;;5081982;28;20044;-74
2023/10/22 09:49:04;;;;;;;7.82;4.60;;;;;;;;;;5082673;28;20618;-73
2023/10/22 09:51:35;;;;;;;9.13;4.45;;;;;;;;;;5079680;28;20055;-74
2023/10/22 09:54:09;;;;;;;7.85;4.95;;;;;;;;;;5082139;28;20494;-74
2023/10/22 09:56:49;;;;;;;11.80;5.53;;;;;;;;;;5081747;28;20040;-74
2023/10/22 09:59:22;;;;;;;10.07;5.50;;;;;;;;;;5082285;28;20040;-74
2023/10/22 10:01:54;;;;;;;6.57;3.83;;;;;;;;;;5080463;28;20040;-73
2023/10/22 10:04:27;;;;;;;10.40;4.25;;;;;;;;;;5081531;28;20501;-72
2023/10/22 10:07:01;;;;;;;8.45;3.05;;;;;;;;;;5081397;28;20618;-74
2023/10/22 10:09:33;;;;;;;9.73;3.67;;;;;;;;;;5081907;28;20055;-74
2023/10/22 10:12:12;;;;;;;10.43;3.17;;;;;;;;;;5081369;28;20487;-74
2023/10/22 10:14:47;;;;;;;5.20;3.13;;;;;;;;;;5081051;28;20052;-73
2023/10/22 10:17:19;;;;;;;9.13;3.40;;;;;;;;;;5083972;28;20036;-73
2023/10/22 10:19:51;;;;;;;6.22;2.70;;;;;;;;;;5085617;28;20055;-73
2023/10/22 10:22:40;;;;;;;4.57;2.70;;;;;;;;;;5085007;28;20055;-72
2023/10/22 10:25:33;;;;;;;8.35;2.75;;;;;;;;;;5084970;28;20036;-75
2023/10/22 10:28:08;;;;;;;6.10;2.97;;;;;;;;;;5085022;28;20048;-73
2023/10/22 10:30:39;;;;;;;7.68;3.20;;;;;;;;;;5085263;28;20047;-72
2023/10/22 10:33:12;;;;;;;7.07;3.60;;;;;;;;;;5085217;28;20590;-73
2023/10/22 10:35:49;;;;;;;8.40;3.72;;;;;;;;;;5084847;28;20623;-72
2023/10/22 10:38:22;;;;;;;4.28;2.72;;;;;;;;;;5085248;28;20036;-79
2023/10/22 10:40:55;;;;;;;12.38;3.47;;;;;;;;;;5084971;28;20048;-74
2023/10/22 10:44:08;;;;;;;7.57;2.97;;;;;;;;;;5085343;28;20051;-74
2023/10/22 10:46:39;;;;;;;7.38;3.00;;;;;;;;;;5048260;28;20055;-75
2023/10/22 10:49:09;;;;;;;5.70;3.53;;;;;;;;;;5085361;28;20048;-73
2023/10/22 10:51:59;;;;;;;6.00;3.45;;;;;;;;;;5085014;28;20059;-75
2023/10/22 10:54:30;;;;;;;7.35;3.22;;;;;;;;;;5084508;28;20047;-74
2023/10/22 10:57:01;;;;;;;5.45;3.25;;;;;;;;;;5082341;28;20071;-74
2023/10/22 10:59:32;;;;;;;4.35;2.65;;;;;;;;;;5085000;28;20048;-75
2023/10/22 11:02:12;;;;;;;5.50;2.63;;;;;;;;;;5084948;28;20047;-74
2023/10/22 11:04:46;;;;;;;7.65;3.25;;;;;;;;;;5083877;28;20044;-74
2023/10/22 11:07:19;;;;;;;11.40;3.35;;;;;;;;;;5084682;28;20453;-73
2023/10/22 11:09:56;;;;;;;8.23;2.90;;;;;;;;;;5084505;28;20059;-74
2023/10/22 11:12:28;;;;;;;5.78;2.97;;;;;;;;;;5084355;28;20036;-74
2023/10/22 11:14:59;;;;;;;3.75;2.47;;;;;;;;;;5084772;28;20047;-75
2023/10/22 11:17:31;;;;;;;4.63;2.53;;;;;;;;;;5084295;28;20483;-74
2023/10/22 11:20:04;;;;;;;4.20;2.33;;;;;;;;;;5084286;28;20044;-74
2023/10/22 11:22:37;;;;;;;3.22;2.63;;;;;;;;;;5083909;28;20051;-75
2023/10/22 11:25:10;;;;;;;5.55;2.28;;;;;;;;;;5082471;28;20775;-73
2023/10/22 11:27:40;;;;;;;4.20;2.60;;;;;;;;;;5083718;28;20051;-75
2023/10/22 11:30:11;;;;;;;3.78;2.58;;;;;;;;;;5082631;28;20375;-75
2023/10/22 11:32:48;;;;;;;3.65;2.40;;;;;;;;;;5084359;28;20052;-74
2023/10/22 11:35:30;;;;;;;4.32;2.15;;;;;;;;;;5083831;28;20044;-75
2023/10/22 11:38:06;;;;;;;6.35;2.60;;;;;;;;;;5083585;28;20067;-74
2023/10/22 11:40:38;;;;;;;4.57;2.78;;;;;;;;;;5084054;28;20039;-73
2023/10/22 11:43:16;;;;;;;7.68;2.65;;;;;;;;;;5083886;28;20048;-77
2023/10/22 11:45:52;;;;;;;6.07;2.70;;;;;;;;;;5083385;28;20040;-74
2023/10/22 11:48:24;;;;;;;;;;;;;;;;;;5084449;28;20043;-78
2023/10/22 11:51:00;;;;;;;7.07;2.42;;;;;;;;;;5084128;28;19920;-76
2023/10/22 11:53:43;;;;;;;9.90;3.00;;;;;;;;;;5083592;28;20055;-75
2023/10/22 11:56:13;;;;;;;4.70;2.58;;;;;;;;;;5083697;28;20493;-76
2023/10/22 11:58:55;;;;;;;5.85;2.60;;;;;;;;;;5081304;28;20036;-74
2023/10/22 12:01:25;;;;;;;5.82;3.08;;;;;;;;;;5083348;28;20585;-74
2023/10/22 12:03:56;;;;;;;3.53;2.85;;;;;;;;;;5083443;28;20043;-75
2023/10/22 12:06:27;;;;;;;4.65;2.78;;;;;;;;;;5082805;28;20363;-74
2023/10/22 12:08:57;;;;;;;4.68;2.90;;;;;;;;;;5082923;28;20416;-76
2023/10/22 12:11:29;;;;;;;4.82;2.80;;;;;;;;;;5083580;28;20458;-75
2023/10/22 12:14:00;;;;;;;4.32;2.75;;;;;;;;;;5083400;28;20351;-78
2023/10/22 12:16:31;;;;;;;4.93;2.70;;;;;;;;;;5083521;28;20048;-81
2023/10/22 12:19:02;;;;;;;3.80;2.97;;;;;;;;;;5083237;28;20039;-74
2023/10/22 12:21:33;;;;;;;3.47;2.78;;;;;;;;;;5083118;28;20040;-78
2023/10/22 12:24:04;;;;;;;6.82;2.55;;;;;;;;;;5082578;28;20036;-75
2023/10/22 12:26:48;;;;;;;6.03;2.83;;;;;;;;;;5081448;28;20067;-72
2023/10/22 12:29:19;;;;;;;3.53;2.95;;;;;;;;;;5082752;28;20055;-74
2023/10/22 12:31:52;;;;;;;5.72;3.17;;;;;;;;;;5082607;28;20044;-74
2023/10/22 12:34:22;;;;;;;5.03;2.90;;;;;;;;;;5082834;28;20842;-74
2023/10/22 12:36:52;;;;;;;4.90;2.75;;;;;;;;;;5083265;28;20040;-75
2023/10/22 12:39:23;;;;;;;7.38;3.10;;;;;;;;;;5080572;28;20062;-74
2023/10/22 12:41:54;;;;;;;9.63;2.78;;;;;;;;;;5082613;28;20521;-75
2023/10/22 12:44:24;;;;;;;6.53;3.83;;;;;;;;;;5082598;28;20051;-74
2023/10/22 12:46:55;;;;;;;9.20;2.78;;;;;;;;;;5082348;28;20032;-74
2023/10/22 12:49:24;;;;;;;11.65;3.13;;;;;;;;;;5082517;28;20516;-77
2023/10/22 12:51:55;;;;;;;6.40;2.45;;;;;;;;;;5082003;28;20039;-75
2023/10/22 12:54:25;;;;;;;4.38;2.25;;;;;;;;;;5082773;28;20043;-76
2023/10/22 12:56:58;;;;;;;4.28;2.50;;;;;;;;;;5082627;28;20040;-75
2023/10/22 12:59:32;;;;;;;4.65;2.72;;;;;;;;;;5081863;28;20040;-75
2023/10/22 13:02:03;;;;;;;5.13;2.92;;;;;;;;;;5082271;28;20048;-75
2023/10/22 13:04:35;;;;;;;8.68;2.90;;;;;;;;;;5081866;28;20051;-74
2023/10/22 13:07:06;;;;;;;5.38;2.50;;;;;;;;;;5062330;28;20041;-74
2023/10/22 13:09:37;;;;;;;6.88;2.60;;;;;;;;;;5061959;28;20372;-77
2023/10/22 13:12:08;;;;;;;3.60;2.40;;;;;;;;;;5061822;28;20036;-74
2023/10/22 13:14:39;;;;;;;6.55;2.78;;;;;;;;;;5062742;28;20044;-74
2023/10/22 13:17:10;;;;;;;4.78;2.42;;;;;;;;;;5061642;28;20044;-76
2023/10/22 13:19:39;;;;;;;5.63;2.65;;;;;;;;;;5060762;28;20760;-77
2023/10/22 13:22:10;;;;;;;6.45;2.85;;;;;;;;;;5061323;28;20041;-77
2023/10/22 13:24:41;;;;;;;5.22;2.80;;;;;;;;;;5061526;28;20044;-74
2023/10/22 13:27:11;;;;;;;6.35;2.53;;;;;;;;;;5062534;28;20036;-75
2023/10/22 13:29:41;;;;;;;5.57;3.00;;;;;;;;;;5062120;28;20051;-76
2023/10/22 13:32:11;;;;;;;8.48;2.67;;;;;;;;;;5061903;28;20036;-77
2023/10/22 13:34:46;;;;;;;7.57;3.22;;;;;;;;;;5061710;28;20045;-77
2023/10/22 13:37:17;;;;;;;8.63;2.83;;;;;;;;;;5062171;28;20075;-79
2023/10/22 13:39:48;;;;;;;5.75;2.80;;;;;;;;;;5062129;28;20036;-77
2023/10/22 13:42:18;;;;;;;6.90;3.20;;;;;;;;;;5062395;28;20040;-76
2023/10/22 13:44:49;;;;;;;8.10;3.10;;;;;;;;;;5071060;28;20047;-76
2023/10/22 13:47:20;;;;;;;8.43;3.20;;;;;;;;;;5081151;28;20044;-73
2023/10/22 13:49:50;;;;;;;6.63;3.40;;;;;;;;;;5081759;28;21156;-75
2023/10/22 13:52:20;;;;;;;4.22;2.67;;;;;;;;;;5084658;28;20059;-76
2023/10/22 13:54:51;;;;;;;9.93;3.20;;;;;;;;;;5085922;28;20052;-73
2023/10/22 13:57:22;;;;;;;5.88;2.95;;;;;;;;;;5085812;28;20036;-75
2023/10/22 13:59:53;;;;;;;7.15;3.05;;;;;;;;;;5085016;28;20052;-77
2023/10/22 14:02:24;;;;;;;5.50;3.15;;;;;;;;;;5084115;28;21109;-76
2023/10/22 14:04:54;;;;;;;6.88;2.75;;;;;;;;;;5082085;28;20058;-73
2023/10/22 14:07:24;;;;;;;10.95;5.85;;;;;;;;;;5083106;28;20054;-75
2023/10/22 14:09:54;;;;;;;9.98;3.00;;;;;;;;;;5083137;28;20058;-73
2023/10/22 14:12:26;;;;;;;5.93;3.40;;;;;;;;;;5085094;28;20067;-74
2023/10/22 14:14:56;;;;;;;5.05;2.70;;;;;;;;;;5085929;28;20044;-71
2023/10/22 14:17:26;;;;;;;6.63;2.47;;;;;;;;;;5085524;28;20864;-72
2023/10/22 14:19:57;;;;;;;6.45;2.42;;;;;;;;;;5085856;28;20501;-75
2023/10/22 14:22:28;;;;;;;4.05;2.30;;;;;;;;;;5086213;28;20617;-75
2023/10/22 14:24:58;;;;;;;5.75;2.28;;;;;;;;;;5085539;28;20044;-75
2023/10/22 14:27:28;;;;;;;3.67;2.22;;;;;;;;;;5085737;28;20494;-73
2023/10/22 14:29:58;;;;;;;4.28;2.70;;;;;;;;;;5085147;28;20478;-75
2023/10/22 14:32:29;;;;;;;7.50;2.55;;;;;;;;;;5085429;28;20047;-73
2023/10/22 14:35:00;;;;;;;7.30;2.38;;;;;;;;;;5084728;28;20402;-73
2023/10/22 14:37:31;;;;;;;8.35;2.70;;;;;;;;;;5085049;28;20051;-71
2023/10/22 14:40:03;;;;;;;8.80;2.78;;;;;;;;;;5085004;28;20052;-75
2023/10/22 14:42:33;;;;;;;4.95;2.42;;;;;;;;;;5085930;28;20032;-72
2023/10/22 14:45:05;;;;;;;4.45;2.67;;;;;;;;;;5084936;28;20040;-75
2023/10/22 14:47:36;;;;;;;10.38;2.75;;;;;;;;;;5085645;28;20044;-75
2023/10/22 14:50:07;;;;;;;6.82;3.00;;;;;;;;;;5085629;28;20044;-73
2023/10/22 14:52:37;;;;;;;5.13;2.70;;;;;;;;;;5084567;28;20040;-71
2023/10/22 14:55:07;;;;;;;9.35;2.60;;;;;;;;;;5084493;28;20047;-72
2023/10/22 14:57:38;;;;;;;4.65;2.63;;;;;;;;;;5084964;28;20040;-70
2023/10/22 15:00:09;;;;;;;11.27;2.75;;;;;;;;;;5084965;28;20044;-78
2023/10/22 15:02:40;;;;;;;8.57;2.90;;;;;;;;;;5084177;28;20044;-72
2023/10/22 15:05:11;;;;;;;5.72;3.25;;;;;;;;;;5084440;28;20044;-74
2023/10/22 15:07:45;;;;;;;11.30;2.90;;;;;;;;;;5082570;28;20040;-75
2023/10/22 15:10:15;;;;;;;3.67;2.22;;;;;;;;;;5084594;28;20040;-74
2023/10/22 15:12:45;;;;;;;8.15;2.90;;;;;;;;;;5083638;28;20051;-74
2023/10/22 15:15:15;;;;;;;5.35;2.38;;;;;;;;;;5084180;28;20055;-75
2023/10/22 15:17:45;;;;;;;10.25;2.45;;;;;;;;;;5084081;28;20039;-73
2023/10/22 15:20:17;;;;;;;3.92;2.75;;;;;;;;;;5083949;28;20040;-73
2023/10/22 15:22:47;;;;;;;5.50;2.80;;;;;;;;;;5084170;28;20047;-73
2023/10/22 15:25:17;;;;;;;4.88;2.85;;;;;;;;;;5084042;28;20036;-73